Time;durP1;ratioP1;P1;durP2;ratioP2;P2;SDS_P1;SDS_P2;PMS_P1;PMS_P2;Temp;Humidity;BMP_temperature;BMP_pressure;BME280_temperature;BME280_humidity;BME280_pressure;Samples;Min_cycle;Max_cycle;Signal;HPM_P1;HPM_P2
2023/10/07 00:01:45;;;;;;;10.77;5.67;;;9.30;99.90;;;;;;480665;247;27897;-72
2023/10/07 00:03:44;;;;;;;9.40;6.00;;;9.30;99.90;;;;;;480649;247;28442;-71
2023/10/07 00:05:46;;;;;;;12.33;6.37;;;9.20;99.90;;;;;;480662;247;28426;-71
2023/10/07 00:07:46;;;;;;;11.30;6.30;;;9.20;99.90;;;;;;480642;247;29105;-71
2023/10/07 00:09:50;;;;;;;11.43;5.90;;;9.20;99.90;;;;;;480638;247;27865;-70
2023/10/07 00:11:49;;;;;;;12.77;5.87;;;9.20;99.90;;;;;;480660;247;27808;-72
2023/10/07 00:13:54;;;;;;;9.20;5.40;;;9.20;99.90;;;;;;480650;247;27806;-71
2023/10/07 00:15:51;;;;;;;12.90;6.43;;;9.20;99.90;;;;;;480637;247;28016;-71
2023/10/07 00:17:56;;;;;;;13.30;6.10;;;9.20;99.90;;;;;;480647;247;27505;-71
2023/10/07 00:19:55;;;;;;;13.47;5.80;;;9.20;99.90;;;;;;480650;247;27878;-71
2023/10/07 00:22:08;;;;;;;11.50;5.87;;;9.20;99.90;;;;;;480611;247;27896;-71
2023/10/07 00:24:06;;;;;;;12.77;5.43;;;9.10;99.90;;;;;;480584;247;29276;-70
2023/10/07 00:26:08;;;;;;;8.67;5.57;;;9.10;99.90;;;;;;480591;247;28364;-71
2023/10/07 00:28:17;;;;;;;11.27;5.70;;;9.20;99.90;;;;;;480608;247;28460;-71
2023/10/07 00:30:13;;;;;;;10.17;6.13;;;9.20;99.90;;;;;;480550;247;28433;-70
2023/10/07 00:32:08;;;;;;;12.67;6.20;;;9.20;99.90;;;;;;480471;247;28036;-71
2023/10/07 00:34:15;;;;;;;14.20;6.70;;;9.20;99.90;;;;;;480635;247;28055;-70
2023/10/07 00:36:14;;;;;;;10.40;6.20;;;9.20;99.90;;;;;;480638;246;27983;-70
2023/10/07 00:38:14;;;;;;;9.83;5.40;;;9.30;99.90;;;;;;480533;245;27932;-72
2023/10/07 00:40:31;;;;;;;16.77;6.60;;;9.20;99.90;;;;;;480666;247;28537;-71
2023/10/07 00:42:18;;;;;;;9.53;5.67;;;9.20;99.90;;;;;;480627;246;27734;-70
2023/10/07 00:44:22;;;;;;;23.70;11.63;;;9.10;99.90;;;;;;480591;247;27878;-71
2023/10/07 00:46:28;;;;;;;18.63;10.67;;;9.20;99.90;;;;;;480658;247;27794;-71
2023/10/07 00:48:38;;;;;;;18.60;8.07;;;9.20;99.90;;;;;;482298;246;28058;-72
2023/10/07 00:50:25;;;;;;;13.80;7.93;;;9.20;99.90;;;;;;480575;247;28523;-70
2023/10/07 00:52:29;;;;;;;11.73;6.70;;;9.20;99.90;;;;;;480308;245;28677;-71
2023/10/07 00:54:38;;;;;;;12.17;6.50;;;9.30;99.90;;;;;;480600;247;27793;-70
2023/10/07 00:56:36;;;;;;;12.90;6.60;;;9.30;99.90;;;;;;480247;247;27965;-71
2023/10/07 00:58:35;;;;;;;14.50;7.40;;;9.20;99.90;;;;;;480589;247;28022;-72
2023/10/07 01:02:42;;;;;;;11.83;6.43;;;9.10;99.90;;;;;;472493;252;28005;-71
2023/10/07 01:04:42;;;;;;;13.23;6.13;;;9.10;99.90;;;;;;480599;247;28158;-70
2023/10/07 01:06:45;;;;;;;9.67;6.00;;;9.10;99.90;;;;;;480636;247;29201;-70
2023/10/07 01:08:45;;;;;;;13.60;6.83;;;9.10;99.90;;;;;;480621;247;28017;-71
2023/10/07 01:10:54;;;;;;;11.07;6.40;;;9.10;99.90;;;;;;480623;247;28022;-71
2023/10/07 01:12:51;;;;;;;10.57;6.13;;;9.00;99.90;;;;;;480597;247;28020;-70
2023/10/07 01:14:48;;;;;;;9.87;5.30;;;9.00;99.90;;;;;;480627;247;27923;-71
2023/10/07 01:16:49;;;;;;;13.53;6.07;;;9.00;99.90;;;;;;480643;247;28136;-71
2023/10/07 01:18:51;;;;;;;11.40;6.03;;;8.90;99.90;;;;;;480681;247;28021;-71
2023/10/07 01:23:03;;;;;;;18.07;6.30;;;9.00;99.90;;;;;;480692;247;27766;-71
2023/10/07 01:25:09;;;;;;;8.97;5.30;;;8.90;99.90;;;;;;480651;245;27798;-71
2023/10/07 01:27:21;;;;;;;12.47;6.80;;;8.90;99.90;;;;;;480658;247;27445;-72
2023/10/07 01:29:20;;;;;;;12.67;7.50;;;8.80;99.90;;;;;;480710;246;28140;-71
2023/10/07 01:31:19;;;;;;;10.23;6.17;;;8.70;99.90;;;;;;480677;247;27989;-71
2023/10/07 01:33:34;;;;;;;13.70;7.70;;;8.70;99.90;;;;;;480665;247;28000;-71
2023/10/07 01:35:32;;;;;;;12.90;5.57;;;8.70;99.90;;;;;;480585;247;27942;-71
2023/10/07 01:37:40;;;;;;;11.60;5.93;;;8.60;99.90;;;;;;480693;247;27992;-72
2023/10/07 01:39:40;;;;;;;11.40;6.37;;;8.60;99.90;;;;;;480565;247;28007;-72
2023/10/07 01:41:37;;;;;;;11.93;6.00;;;8.60;99.90;;;;;;480669;246;27824;-71
2023/10/07 01:43:39;;;;;;;13.43;6.00;;;8.70;99.90;;;;;;480630;246;27999;-72
2023/10/07 01:45:34;;;;;;;17.13;8.10;;;8.60;99.90;;;;;;480645;247;27887;-71
2023/10/07 01:47:35;;;;;;;12.03;6.80;;;8.70;99.90;;;;;;480627;247;28463;-71
2023/10/07 01:49:36;;;;;;;8.97;4.97;;;8.70;99.90;;;;;;480389;247;28500;-73
2023/10/07 01:51:37;;;;;;;11.80;5.93;;;8.70;99.90;;;;;;480300;247;28439;-71
2023/10/07 01:53:38;;;;;;;9.90;6.00;;;8.70;99.90;;;;;;480487;247;28121;-71
2023/10/07 01:55:43;;;;;;;12.07;5.90;;;8.70;99.90;;;;;;480641;247;27901;-71
2023/10/07 01:57:45;;;;;;;10.83;5.93;;;8.70;99.90;;;;;;480617;247;27928;-72
2023/10/07 01:59:45;;;;;;;9.30;5.67;;;8.70;99.90;;;;;;480681;247;27898;-71
2023/10/07 02:01:53;;;;;;;10.03;6.30;;;8.70;99.90;;;;;;480638;247;28054;-72
2023/10/07 02:03:48;;;;;;;11.17;6.73;;;8.70;99.90;;;;;;480643;246;27769;-71
2023/10/07 02:05:49;;;;;;;12.77;6.33;;;8.70;99.90;;;;;;480616;247;27821;-71
2023/10/07 02:07:53;;;;;;;14.67;7.90;;;8.70;99.90;;;;;;480654;247;28023;-72
2023/10/07 02:09:54;;;;;;;12.27;6.33;;;8.50;99.90;;;;;;480604;247;28352;-71
2023/10/07 02:11:53;;;;;;;12.73;5.80;;;8.50;99.90;;;;;;480649;247;28291;-72
2023/10/07 02:13:55;;;;;;;14.37;7.00;;;8.40;99.90;;;;;;480724;247;28461;-71
2023/10/07 02:15:55;;;;;;;13.73;6.30;;;8.50;99.90;;;;;;480679;247;27648;-71
2023/10/07 02:17:56;;;;;;;11.93;6.60;;;8.40;99.90;;;;;;480621;247;27908;-71
2023/10/07 02:20:09;;;;;;;14.03;5.43;;;8.40;99.90;;;;;;480675;247;27833;-71
2023/10/07 02:22:44;;;;;;;9.80;5.50;;;8.40;99.90;;;;;;480607;247;27817;-71
2023/10/07 02:24:06;;;;;;;16.07;8.00;;;8.40;99.90;;;;;;481251;246;28574;-72
2023/10/07 02:26:15;;;;;;;12.23;7.00;;;8.40;99.90;;;;;;480550;247;27981;-72
2023/10/07 02:28:09;;;;;;;10.90;6.00;;;8.40;99.90;;;;;;480477;247;27913;-73
2023/10/07 02:30:19;;;;;;;17.10;7.57;;;8.40;99.90;;;;;;480569;247;27872;-71
2023/10/07 02:32:17;;;;;;;14.50;7.23;;;8.40;99.90;;;;;;480543;247;28015;-71
2023/10/07 02:34:28;;;;;;;12.40;6.13;;;8.40;99.90;;;;;;480554;247;28517;-71
2023/10/07 02:36:31;;;;;;;9.60;6.00;;;8.40;99.90;;;;;;480536;247;28378;-71
2023/10/07 02:38:52;;;;;;;11.63;6.00;;;8.40;99.90;;;;;;480584;247;27982;-71
2023/10/07 02:40:48;;;;;;;9.70;6.27;;;8.50;99.90;;;;;;480879;246;27762;-71
2023/10/07 02:42:39;;;;;;;11.57;5.83;;;8.40;99.90;;;;;;480560;247;28486;-73
2023/10/07 02:44:41;;;;;;;11.33;5.50;;;8.50;99.90;;;;;;480648;247;28345;-71
2023/10/07 02:46:41;;;;;;;8.60;5.20;;;8.50;99.90;;;;;;480648;247;27887;-71
2023/10/07 02:48:42;;;;;;;13.33;6.70;;;8.50;99.90;;;;;;480606;247;27858;-71
2023/10/07 02:50:44;;;;;;;9.10;4.50;;;8.50;99.90;;;;;;480597;247;28076;-71
2023/10/07 02:52:49;;;;;;;10.47;6.13;;;8.40;99.90;;;;;;480682;247;28073;-72
2023/10/07 02:55:12;;;;;;;11.47;6.33;;;8.40;99.90;;;;;;480613;247;27762;-72
2023/10/07 02:57:34;;;;;;;12.77;6.70;;;8.40;99.90;;;;;;480570;245;27829;-73
2023/10/07 02:59:03;;;;;;;13.20;5.80;;;8.40;99.90;;;;;;481124;246;27539;-72
2023/10/07 03:01:16;;;;;;;18.83;7.60;;;8.40;99.90;;;;;;480591;247;27910;-71
2023/10/07 03:05:14;;;;;;;14.10;6.67;;;8.30;99.90;;;;;;480641;247;27912;-71
2023/10/07 03:07:16;;;;;;;10.70;6.20;;;8.30;99.90;;;;;;480624;247;28405;-72
2023/10/07 03:09:18;;;;;;;20.27;8.77;;;8.30;99.90;;;;;;480601;247;28385;-71
2023/10/07 03:11:21;;;;;;;13.13;6.47;;;8.40;99.90;;;;;;480565;247;28366;-72
2023/10/07 03:13:22;;;;;;;13.00;6.00;;;8.40;99.90;;;;;;480627;247;27923;-72
2023/10/07 03:15:41;;;;;;;12.60;6.90;;;8.30;99.90;;;;;;480607;247;27995;-73
2023/10/07 03:17:37;;;;;;;12.90;6.37;;;8.30;99.90;;;;;;480593;246;28099;-72
2023/10/07 03:19:48;;;;;;;12.67;6.60;;;8.40;99.90;;;;;;480572;247;27882;-71
2023/10/07 03:21:55;;;;;;;14.23;6.87;;;8.30;99.90;;;;;;480563;247;28026;-72
2023/10/07 03:23:58;;;;;;;14.90;7.17;;;8.30;99.90;;;;;;480561;247;28063;-73
2023/10/07 03:27:55;;;;;;;11.13;5.60;;;8.30;99.90;;;;;;480612;246;27904;-72
2023/10/07 03:30:00;;;;;;;12.70;6.37;;;8.30;99.90;;;;;;480642;247;27877;-71
2023/10/07 03:32:00;;;;;;;8.63;5.77;;;8.30;99.90;;;;;;480630;247;28017;-72
2023/10/07 03:34:03;;;;;;;12.40;6.87;;;8.30;99.90;;;;;;480656;245;27911;-72
2023/10/07 03:38:08;;;;;;;9.43;5.90;;;8.30;99.90;;;;;;480601;247;28024;-72
2023/10/07 03:40:25;;;;;;;12.23;6.13;;;8.30;99.90;;;;;;480582;247;27948;-71
2023/10/07 03:42:19;;;;;;;14.50;7.67;;;8.30;99.90;;;;;;480582;246;27920;-71
2023/10/07 03:44:20;;;;;;;11.30;6.20;;;8.30;99.90;;;;;;480610;247;28467;-71
2023/10/07 03:46:27;;;;;;;16.63;7.53;;;8.30;99.90;;;;;;480644;247;28356;-71
2023/10/07 03:48:31;;;;;;;19.93;8.90;;;8.20;99.90;;;;;;480611;247;28487;-71
2023/10/07 03:50:34;;;;;;;17.03;7.80;;;8.20;99.90;;;;;;480553;247;28402;-71
2023/10/07 03:52:34;;;;;;;14.80;7.10;;;8.20;99.90;;;;;;480526;247;27534;-71
2023/10/07 03:54:32;;;;;;;17.67;9.40;;;8.30;99.90;;;;;;480564;247;27678;-72
2023/10/07 03:56:34;;;;;;;13.70;6.43;;;8.30;99.90;;;;;;480640;247;27876;-71
2023/10/07 03:58:36;;;;;;;12.47;6.53;;;8.40;99.90;;;;;;480647;247;28400;-72
2023/10/07 04:00:36;;;;;;;10.57;6.00;;;8.40;99.90;;;;;;480560;247;28971;-72
2023/10/07 04:02:39;;;;;;;9.93;5.80;;;8.40;99.90;;;;;;480563;247;28641;-71
2023/10/07 04:04:41;;;;;;;9.93;6.80;;;8.40;99.90;;;;;;480566;247;28415;-71
2023/10/07 04:06:40;;;;;;;9.50;5.87;;;8.40;99.90;;;;;;480563;247;27984;-71
2023/10/07 04:08:41;;;;;;;10.30;6.30;;;8.40;99.90;;;;;;480550;247;27940;-71
2023/10/07 04:10:48;;;;;;;10.13;5.80;;;8.40;99.90;;;;;;480545;247;27903;-72
2023/10/07 04:12:47;;;;;;;14.40;6.80;;;8.40;99.90;;;;;;480556;247;28047;-71
2023/10/07 04:14:47;;;;;;;13.63;7.80;;;8.50;99.90;;;;;;480589;247;28102;-71
2023/10/07 04:16:49;;;;;;;14.70;8.50;;;8.40;99.90;;;;;;480596;247;28057;-71
2023/10/07 04:18:50;;;;;;;11.63;6.63;;;8.30;99.90;;;;;;480587;247;27988;-72
2023/10/07 04:20:57;;;;;;;14.40;7.13;;;8.30;99.90;;;;;;480676;247;28383;-71
2023/10/07 04:23:00;;;;;;;10.50;6.10;;;8.30;99.90;;;;;;480668;247;28236;-72
2023/10/07 04:25:07;;;;;;;16.80;7.80;;;8.20;99.90;;;;;;480542;247;27747;-71
2023/10/07 04:27:05;;;;;;;12.60;6.13;;;8.20;99.90;;;;;;480566;247;28060;-71
2023/10/07 04:29:07;;;;;;;13.40;6.00;;;8.20;99.90;;;;;;480616;247;27933;-71
2023/10/07 04:31:13;;;;;;;15.83;7.90;;;8.10;99.90;;;;;;480630;247;27694;-72
2023/10/07 04:33:11;;;;;;;15.70;7.80;;;8.20;99.90;;;;;;480701;245;27959;-71
2023/10/07 04:35:20;;;;;;;15.60;7.07;;;8.20;99.90;;;;;;480684;247;28487;-71
2023/10/07 04:37:29;;;;;;;13.53;6.87;;;8.30;99.90;;;;;;480660;247;28348;-71
2023/10/07 04:39:27;;;;;;;12.67;7.57;;;8.30;99.90;;;;;;480571;247;28432;-71
2023/10/07 04:43:35;;;;;;;12.20;6.97;;;8.40;99.90;;;;;;480640;247;28009;-71
2023/10/07 04:45:37;;;;;;;12.40;7.47;;;8.40;99.90;;;;;;480599;247;27549;-71
2023/10/07 04:47:46;;;;;;;19.40;7.13;;;8.40;99.90;;;;;;480628;247;27902;-71
2023/10/07 04:49:55;;;;;;;13.97;6.80;;;8.40;99.90;;;;;;480634;247;27929;-72
2023/10/07 04:53:57;;;;;;;9.40;5.57;;;8.40;99.90;;;;;;480695;247;28315;-71
2023/10/07 04:55:45;;;;;;;8.80;5.37;;;8.40;99.90;;;;;;480591;247;28425;-72
2023/10/07 04:59:55;;;;;;;17.60;7.70;;;8.40;99.90;;;;;;480644;247;27898;-71
2023/10/07 05:02:01;;;;;;;12.63;7.10;;;8.40;99.90;;;;;;480610;247;28005;-72
2023/10/07 05:04:03;;;;;;;14.60;6.87;;;8.50;99.90;;;;;;480603;247;28043;-72
2023/10/07 05:06:00;;;;;;;12.50;6.30;;;8.50;99.90;;;;;;480644;247;27875;-71
2023/10/07 05:08:11;;;;;;;11.43;6.30;;;8.50;99.90;;;;;;480595;247;27886;-71
2023/10/07 05:10:12;;;;;;;10.43;5.40;;;8.50;99.90;;;;;;480599;247;27931;-71
2023/10/07 05:12:13;;;;;;;8.73;5.87;;;8.50;99.90;;;;;;480613;247;27812;-72
2023/10/07 05:14:35;;;;;;;13.40;7.00;;;8.50;99.90;;;;;;480637;247;27986;-71
2023/10/07 05:16:19;;;;;;;17.50;8.93;;;8.40;99.90;;;;;;480931;246;27962;-71
2023/10/07 05:18:19;;;;;;;11.60;7.00;;;8.50;99.90;;;;;;480658;247;28008;-71
2023/10/07 05:20:32;;;;;;;15.03;8.30;;;8.50;99.90;;;;;;480663;247;27887;-71
2023/10/07 05:22:31;;;;;;;11.50;7.40;;;8.50;99.90;;;;;;480624;247;28141;-73
2023/10/07 05:24:35;;;;;;;9.70;5.77;;;8.60;99.90;;;;;;480624;247;27987;-71
2023/10/07 05:26:33;;;;;;;11.07;5.97;;;8.50;99.90;;;;;;480661;246;27934;-71
2023/10/07 05:28:35;;;;;;;12.93;6.13;;;8.50;99.90;;;;;;480633;247;27975;-72
2023/10/07 05:30:36;;;;;;;10.80;6.57;;;8.50;99.90;;;;;;480585;247;28157;-71
2023/10/07 05:32:37;;;;;;;14.10;6.20;;;8.40;99.90;;;;;;480618;247;28494;-72
2023/10/07 05:34:38;;;;;;;12.30;6.73;;;8.50;99.90;;;;;;480619;247;28427;-71
2023/10/07 05:36:40;;;;;;;16.27;8.00;;;8.50;99.90;;;;;;480618;247;28404;-71
2023/10/07 05:38:42;;;;;;;12.90;7.13;;;8.60;99.90;;;;;;480627;247;27988;-71
2023/10/07 05:40:42;;;;;;;12.80;6.87;;;8.60;99.90;;;;;;480641;247;27962;-71
2023/10/07 05:42:44;;;;;;;12.23;6.70;;;8.70;99.90;;;;;;480640;247;27996;-72
2023/10/07 05:44:45;;;;;;;17.77;6.80;;;8.80;99.90;;;;;;480635;247;28044;-71
2023/10/07 05:46:46;;;;;;;12.73;7.03;;;8.80;99.90;;;;;;480626;247;27906;-71
2023/10/07 05:48:47;;;;;;;12.10;6.30;;;8.90;99.90;;;;;;480675;246;27561;-72
2023/10/07 05:50:49;;;;;;;16.60;8.20;;;8.90;99.90;;;;;;480606;247;27634;-71
2023/10/07 05:52:50;;;;;;;10.57;6.80;;;8.90;99.90;;;;;;480639;247;28397;-72
2023/10/07 05:54:51;;;;;;;8.60;5.70;;;8.80;99.90;;;;;;480648;247;28349;-71
2023/10/07 05:56:54;;;;;;;13.10;6.63;;;8.90;99.90;;;;;;480238;247;28494;-71
2023/10/07 05:58:54;;;;;;;10.90;6.13;;;8.90;99.90;;;;;;480630;247;27974;-73
2023/10/07 06:00:58;;;;;;;15.43;6.87;;;8.90;99.90;;;;;;480600;247;27895;-72
2023/10/07 06:02:57;;;;;;;15.30;7.70;;;9.00;99.90;;;;;;480631;247;27867;-71
2023/10/07 06:04:59;;;;;;;14.40;7.20;;;9.10;99.90;;;;;;480622;245;28004;-71
2023/10/07 06:06:59;;;;;;;11.90;5.50;;;9.10;99.90;;;;;;480572;247;27693;-72
2023/10/07 06:09:03;;;;;;;20.03;6.57;;;9.10;99.90;;;;;;480645;247;27961;-73
2023/10/07 06:11:01;;;;;;;16.53;7.40;;;9.20;99.90;;;;;;480578;247;27799;-71
2023/10/07 06:13:09;;;;;;;9.87;5.37;;;9.30;99.90;;;;;;480599;247;27983;-71
2023/10/07 06:15:10;;;;;;;10.87;6.43;;;9.30;99.90;;;;;;480704;246;27686;-73
2023/10/07 06:17:10;;;;;;;14.83;7.07;;;9.40;99.90;;;;;;480646;247;27986;-72
2023/10/07 06:19:11;;;;;;;8.67;5.80;;;9.40;99.90;;;;;;480619;247;27998;-72
2023/10/07 06:21:28;;;;;;;12.27;6.40;;;9.40;99.90;;;;;;480637;247;27541;-73
2023/10/07 06:23:30;;;;;;;10.93;5.73;;;9.50;99.90;;;;;;480652;247;28374;-72
2023/10/07 06:25:31;;;;;;;10.30;5.97;;;9.50;99.90;;;;;;480605;247;28403;-72
2023/10/07 06:27:36;;;;;;;8.73;5.00;;;9.60;99.90;;;;;;480594;247;28282;-74
2023/10/07 06:29:33;;;;;;;11.27;6.33;;;9.60;99.90;;;;;;480611;247;28540;-72
2023/10/07 06:31:35;;;;;;;14.70;7.03;;;9.60;99.90;;;;;;480632;247;27878;-72
2023/10/07 06:33:38;;;;;;;13.23;6.93;;;9.60;99.90;;;;;;480650;247;27524;-72
2023/10/07 06:35:37;;;;;;;10.60;6.13;;;9.60;99.90;;;;;;480551;245;27508;-72
2023/10/07 06:37:38;;;;;;;9.00;6.03;;;9.60;99.90;;;;;;480668;247;27924;-72
2023/10/07 06:39:40;;;;;;;12.23;7.57;;;9.70;99.90;;;;;;480656;247;27628;-72
2023/10/07 06:41:42;;;;;;;11.67;6.20;;;9.80;99.90;;;;;;480576;247;27938;-72
2023/10/07 06:43:51;;;;;;;10.43;6.00;;;9.80;99.90;;;;;;480593;247;27758;-72
2023/10/07 06:45:49;;;;;;;13.53;6.07;;;9.90;99.90;;;;;;480604;246;28333;-73
2023/10/07 06:47:51;;;;;;;16.23;6.97;;;10.00;99.90;;;;;;480589;247;28048;-74
2023/10/07 06:49:52;;;;;;;15.43;6.67;;;10.00;99.90;;;;;;480608;247;28000;-72
2023/10/07 06:52:03;;;;;;;14.43;6.90;;;10.00;99.90;;;;;;480614;247;27924;-72
2023/10/07 06:54:00;;;;;;;12.50;5.90;;;10.10;99.90;;;;;;480631;246;28490;-72
2023/10/07 06:56:01;;;;;;;9.83;5.93;;;10.10;99.90;;;;;;480573;247;28139;-73
2023/10/07 06:58:00;;;;;;;13.27;6.70;;;10.20;99.90;;;;;;480590;247;27974;-72
2023/10/07 07:00:08;;;;;;;9.13;6.23;;;10.20;99.90;;;;;;480575;247;27942;-71
2023/10/07 07:02:11;;;;;;;11.07;5.93;;;10.20;99.90;;;;;;480587;247;27913;-72
2023/10/07 07:04:14;;;;;;;15.43;6.70;;;10.20;99.90;;;;;;480598;247;27886;-72
2023/10/07 07:06:33;;;;;;;12.93;6.17;;;10.20;99.90;;;;;;480549;247;27852;-72
2023/10/07 07:08:24;;;;;;;9.53;5.93;;;10.30;99.90;;;;;;480483;247;28480;-72
2023/10/07 07:10:27;;;;;;;9.07;6.00;;;10.30;99.90;;;;;;480616;246;28248;-74
2023/10/07 07:12:23;;;;;;;9.53;5.70;;;10.30;99.90;;;;;;480438;246;28425;-72
2023/10/07 07:14:30;;;;;;;15.20;6.43;;;10.30;99.90;;;;;;480629;247;27528;-72
2023/10/07 07:16:41;;;;;;;8.50;5.80;;;10.30;99.90;;;;;;480611;247;27611;-71
2023/10/07 07:18:33;;;;;;;14.37;5.30;;;10.40;99.90;;;;;;480562;247;28173;-72
2023/10/07 07:22:35;;;;;;;12.13;5.47;;;10.40;99.90;;;;;;482351;246;28643;-72
2023/10/07 07:24:37;;;;;;;8.63;5.70;;;10.50;99.90;;;;;;480623;247;27801;-73
2023/10/07 07:26:38;;;;;;;11.00;6.17;;;10.60;99.90;;;;;;480663;247;27913;-72
2023/10/07 07:28:45;;;;;;;8.93;5.80;;;10.70;99.90;;;;;;480595;247;28047;-72
2023/10/07 07:30:46;;;;;;;10.80;5.43;;;10.70;99.90;;;;;;480600;247;28466;-71
2023/10/07 07:32:55;;;;;;;11.17;5.87;;;10.80;99.90;;;;;;480610;247;28736;-72
2023/10/07 07:34:54;;;;;;;10.47;6.43;;;10.90;99.90;;;;;;480611;247;28028;-73
2023/10/07 07:36:59;;;;;;;11.03;5.37;;;10.90;99.90;;;;;;480624;247;28042;-72
2023/10/07 07:38:53;;;;;;;10.67;5.77;;;10.90;99.90;;;;;;480612;247;28209;-72
2023/10/07 07:40:53;;;;;;;7.90;5.03;;;10.90;99.90;;;;;;480662;247;27895;-72
2023/10/07 07:42:57;;;;;;;11.13;6.57;;;11.00;99.90;;;;;;480668;247;27998;-72
2023/10/07 07:44:58;;;;;;;10.10;5.83;;;11.00;99.90;;;;;;480633;247;28242;-72
2023/10/07 07:46:59;;;;;;;11.17;5.80;;;10.90;99.90;;;;;;480639;247;27888;-72
2023/10/07 07:49:06;;;;;;;11.00;6.33;;;11.00;99.90;;;;;;480621;247;28211;-72
2023/10/07 07:51:07;;;;;;;13.30;6.90;;;11.00;99.90;;;;;;480639;247;28198;-73
2023/10/07 07:53:09;;;;;;;12.87;7.10;;;11.00;99.90;;;;;;480631;247;28117;-71
2023/10/07 07:55:14;;;;;;;13.27;7.00;;;11.10;99.90;;;;;;480619;247;28125;-72
2023/10/07 07:57:12;;;;;;;9.40;5.77;;;11.10;99.90;;;;;;480626;247;28130;-72
2023/10/07 07:59:18;;;;;;;10.70;5.80;;;11.10;99.90;;;;;;480639;247;28007;-72
2023/10/07 08:01:28;;;;;;;11.20;5.30;;;11.10;99.90;;;;;;480579;247;28021;-72
2023/10/07 08:03:18;;;;;;;14.00;6.23;;;11.20;99.90;;;;;;480579;246;28260;-72
2023/10/07 08:05:19;;;;;;;12.73;6.63;;;11.30;99.90;;;;;;480599;247;28114;-73
2023/10/07 08:09:28;;;;;;;10.00;6.13;;;11.40;99.90;;;;;;480609;247;28348;-72
2023/10/07 08:11:26;;;;;;;10.70;6.20;;;11.50;99.90;;;;;;480607;247;28298;-72
2023/10/07 08:13:27;;;;;;;14.90;5.50;;;11.60;99.90;;;;;;480612;245;28759;-74
2023/10/07 08:15:38;;;;;;;10.13;5.93;;;11.60;99.90;;;;;;480670;247;28995;-72
2023/10/07 08:17:30;;;;;;;11.30;6.27;;;11.70;99.90;;;;;;480579;247;28235;-72
2023/10/07 08:19:32;;;;;;;8.70;5.37;;;11.70;99.90;;;;;;480636;247;28087;-72
2023/10/07 08:21:35;;;;;;;13.10;6.70;;;11.80;99.90;;;;;;480621;247;28295;-72
2023/10/07 08:23:36;;;;;;;8.40;5.40;;;11.80;99.90;;;;;;480600;247;28371;-73
2023/10/07 08:25:45;;;;;;;8.93;5.37;;;11.90;99.90;;;;;;480572;247;28344;-72
2023/10/07 08:27:48;;;;;;;16.50;5.83;;;11.90;99.90;;;;;;480581;247;28255;-72
2023/10/07 08:29:46;;;;;;;10.97;5.80;;;11.90;99.90;;;;;;480602;247;28614;-72
2023/10/07 08:31:49;;;;;;;10.97;5.73;;;12.00;99.90;;;;;;480461;247;27862;-72
2023/10/07 08:34:09;;;;;;;9.60;5.90;;;12.10;99.90;;;;;;480505;247;28291;-72
2023/10/07 08:35:56;;;;;;;18.50;5.83;;;12.10;99.90;;;;;;480530;247;28574;-72
2023/10/07 08:37:57;;;;;;;12.53;6.40;;;12.20;99.90;;;;;;480605;247;28450;-71
2023/10/07 08:40:07;;;;;;;14.47;5.93;;;12.20;99.90;;;;;;480598;247;28808;-72
2023/10/07 08:42:00;;;;;;;13.07;6.73;;;12.30;99.90;;;;;;480555;247;29042;-72
2023/10/07 08:44:21;;;;;;;10.10;5.93;;;12.40;99.90;;;;;;480632;247;28448;-72
2023/10/07 08:46:09;;;;;;;9.20;5.53;;;12.40;99.90;;;;;;480844;246;28212;-72
2023/10/07 08:48:15;;;;;;;11.50;6.47;;;12.40;99.90;;;;;;480607;247;28482;-72
2023/10/07 08:50:14;;;;;;;15.37;5.60;;;12.50;99.90;;;;;;480593;246;28722;-72
2023/10/07 08:52:12;;;;;;;9.70;5.37;;;12.60;99.90;;;;;;480571;247;28755;-74
2023/10/07 08:54:26;;;;;;;11.27;6.13;;;12.60;99.90;;;;;;480614;247;28722;-72
2023/10/07 08:56:20;;;;;;;9.37;6.00;;;12.70;99.90;;;;;;480552;247;28377;-72
2023/10/07 08:58:22;;;;;;;14.00;6.60;;;12.70;99.90;;;;;;480577;247;28635;-72
2023/10/07 09:00:29;;;;;;;11.93;5.23;;;12.70;99.90;;;;;;480578;247;28771;-72
2023/10/07 09:02:27;;;;;;;15.17;5.97;;;12.70;99.90;;;;;;480576;247;28747;-73
2023/10/07 09:04:34;;;;;;;9.53;5.93;;;12.80;99.90;;;;;;480624;247;28297;-74
2023/10/07 09:06:37;;;;;;;11.57;5.67;;;12.80;99.90;;;;;;480571;247;28459;-72
2023/10/07 09:08:36;;;;;;;10.83;5.43;;;12.80;99.90;;;;;;480634;247;28232;-72
2023/10/07 09:10:37;;;;;;;9.80;5.00;;;12.80;99.90;;;;;;480628;247;28121;-73
2023/10/07 09:12:45;;;;;;;11.13;5.97;;;12.90;99.90;;;;;;480605;247;28364;-72
2023/10/07 09:15:12;;;;;;;13.93;5.53;;;12.90;99.90;;;;;;480574;247;28884;-72
2023/10/07 09:16:42;;;;;;;9.27;5.40;;;13.00;99.90;;;;;;480929;246;28138;-72
2023/10/07 09:18:43;;;;;;;14.70;6.73;;;13.00;99.90;;;;;;480631;247;29303;-72
2023/10/07 09:20:45;;;;;;;15.73;6.27;;;13.10;99.90;;;;;;480639;247;28807;-72
2023/10/07 09:22:47;;;;;;;12.20;5.70;;;13.20;99.90;;;;;;480634;247;28730;-72
2023/10/07 09:24:46;;;;;;;12.17;5.33;;;13.30;99.90;;;;;;480584;247;28180;-74
2023/10/07 09:26:47;;;;;;;9.90;5.20;;;13.20;99.90;;;;;;480627;247;28227;-72
2023/10/07 09:28:51;;;;;;;7.70;5.10;;;13.20;99.90;;;;;;480622;247;28370;-73
2023/10/07 09:30:51;;;;;;;11.00;5.50;;;13.20;99.90;;;;;;480628;247;28168;-72
2023/10/07 09:32:55;;;;;;;13.03;6.07;;;;;;;;;;480615;247;28146;-71
2023/10/07 09:34:55;;;;;;;9.33;5.33;;;13.30;99.90;;;;;;480729;242;26510;-72
2023/10/07 09:36:55;;;;;;;9.23;5.40;;;13.50;99.90;;;;;;480617;247;28157;-72
2023/10/07 09:39:16;;;;;;;12.57;5.97;;;13.50;99.90;;;;;;480592;247;28414;-72
2023/10/07 09:41:12;;;;;;;9.07;5.30;;;13.60;99.90;;;;;;480593;247;28326;-72
2023/10/07 09:43:19;;;;;;;7.80;5.27;;;13.70;99.90;;;;;;480627;247;28244;-72
2023/10/07 09:45:18;;;;;;;9.90;5.10;;;13.80;99.90;;;;;;480618;247;28336;-73
2023/10/07 09:47:21;;;;;;;11.60;5.50;;;13.80;99.90;;;;;;480594;247;28897;-72
2023/10/07 09:49:20;;;;;;;10.13;5.20;;;13.80;99.90;;;;;;480630;247;28186;-72
2023/10/07 09:51:28;;;;;;;8.83;5.20;;;13.90;99.90;;;;;;480620;245;28349;-72
2023/10/07 09:53:27;;;;;;;10.23;5.00;;;13.90;99.90;;;;;;480625;246;29080;-72
2023/10/07 09:55:27;;;;;;;13.47;6.27;;;14.00;99.90;;;;;;480582;247;28612;-72
2023/10/07 09:57:30;;;;;;;9.83;5.40;;;14.00;99.90;;;;;;480618;247;28817;-72
2023/10/07 09:59:32;;;;;;;12.10;5.50;;;14.00;99.90;;;;;;480609;247;28894;-73
2023/10/07 10:01:37;;;;;;;6.67;4.43;;;14.00;99.90;;;;;;480581;247;28496;-72
2023/10/07 10:03:34;;;;;;;16.83;5.07;;;14.10;99.90;;;;;;480627;246;29245;-72
2023/10/07 10:05:36;;;;;;;8.90;5.90;;;14.10;99.90;;;;;;480608;247;28463;-72
2023/10/07 10:07:39;;;;;;;12.50;5.00;;;14.10;99.90;;;;;;480627;247;28535;-73
2023/10/07 10:14:18;;;;;;;11.00;5.70;;;14.20;99.90;;;;;;480548;247;28804;-72
2023/10/07 10:16:19;;;;;;;12.20;5.20;;;14.20;99.90;;;;;;480425;247;28852;-72
2023/10/07 10:18:36;;;;;;;11.40;5.87;;;14.30;99.90;;;;;;480501;247;28813;-72
2023/10/07 10:20:43;;;;;;;8.30;4.73;;;14.40;99.90;;;;;;480508;247;28770;-72
2023/10/07 10:22:44;;;;;;;8.70;4.40;;;14.60;99.90;;;;;;480579;247;28882;-72
2023/10/07 10:24:45;;;;;;;12.30;5.63;;;14.70;99.90;;;;;;480582;247;28822;-73
2023/10/07 10:26:50;;;;;;;6.73;4.20;;;14.80;99.90;;;;;;480568;247;28572;-72
2023/10/07 10:28:48;;;;;;;9.30;4.70;;;14.80;99.90;;;;;;480521;247;28903;-72
2023/10/07 10:30:53;;;;;;;8.93;4.93;;;14.80;99.90;;;;;;480559;247;28942;-72
2023/10/07 10:32:50;;;;;;;9.83;5.07;;;14.80;99.90;;;;;;480598;246;29324;-72
2023/10/07 10:34:52;;;;;;;7.40;4.70;;;14.80;99.90;;;;;;480628;247;29368;-73
2023/10/07 10:36:55;;;;;;;12.27;5.70;;;14.80;99.90;;;;;;480605;247;29306;-72
2023/10/07 10:38:54;;;;;;;10.13;4.77;;;14.90;99.90;;;;;;480600;247;28806;-72
2023/10/07 10:40:57;;;;;;;8.77;4.80;;;15.00;99.90;;;;;;480616;247;28546;-72
2023/10/07 10:42:56;;;;;;;7.30;4.43;;;15.00;99.90;;;;;;480608;247;28842;-72
2023/10/07 10:44:59;;;;;;;12.73;4.60;;;15.00;99.90;;;;;;480622;247;28798;-72
2023/10/07 10:46:59;;;;;;;9.97;5.03;;;15.10;99.90;;;;;;480600;247;28792;-72
2023/10/07 10:49:01;;;;;;;7.53;4.50;;;15.00;99.90;;;;;;480614;247;28921;-73
2023/10/07 10:51:09;;;;;;;8.70;5.00;;;15.10;99.90;;;;;;480627;247;29256;-73
2023/10/07 10:53:06;;;;;;;8.43;5.50;;;15.10;99.90;;;;;;480627;246;28810;-72
2023/10/07 10:55:08;;;;;;;10.20;5.00;;;15.20;99.90;;;;;;480634;247;29261;-72
2023/10/07 10:57:08;;;;;;;6.40;3.93;;;15.20;99.90;;;;;;480604;247;29285;-72
2023/10/07 10:59:09;;;;;;;6.93;4.67;;;15.30;99.90;;;;;;480614;247;29228;-72
2023/10/07 11:01:11;;;;;;;15.00;5.60;;;15.30;99.90;;;;;;480615;247;28790;-72